sensor_id;sensor_type;location;lat;lon;timestamp;P1;durP1;ratioP1;P2;durP2;ratioP2
49440;SDS011;35317;51.978;6.296;2023-04-20T00:00:45;2.28;;;1.08;;
49440;SDS011;35317;51.978;6.296;2023-04-20T00:05:46;1.92;;;1.13;;
49440;SDS011;35317;51.978;6.296;2023-04-20T00:10:50;3.03;;;1.17;;
49440;SDS011;35317;51.978;6.296;2023-04-20T00:15:50;2.10;;;1.10;;
49440;SDS011;35317;51.978;6.296;2023-04-20T00:20:51;2.95;;;1.10;;
49440;SDS011;35317;51.978;6.296;2023-04-20T00:25:52;1.08;;;0.93;;
49440;SDS011;35317;51.978;6.296;2023-04-20T00:30:53;1.75;;;1.08;;
49440;SDS011;35317;51.978;6.296;2023-04-20T00:35:54;1.58;;;1.20;;
49440;SDS011;35317;51.978;6.296;2023-04-20T00:40:55;4.78;;;1.20;;
49440;SDS011;35317;51.978;6.296;2023-04-20T00:45:56;1.98;;;1.00;;
49440;SDS011;35317;51.978;6.296;2023-04-20T00:50:57;2.33;;;1.30;;
49440;SDS011;35317;51.978;6.296;2023-04-20T00:55:58;1.90;;;1.20;;
49440;SDS011;35317;51.978;6.296;2023-04-20T01:00:59;1.13;;;0.95;;
49440;SDS011;35317;51.978;6.296;2023-04-20T01:06:00;1.60;;;1.10;;
49440;SDS011;35317;51.978;6.296;2023-04-20T01:11:01;2.33;;;0.98;;
49440;SDS011;35317;51.978;6.296;2023-04-20T01:16:02;2.15;;;1.05;;
49440;SDS011;35317;51.978;6.296;2023-04-20T01:21:03;3.85;;;1.40;;
49440;SDS011;35317;51.978;6.296;2023-04-20T01:26:07;2.95;;;1.30;;
49440;SDS011;35317;51.978;6.296;2023-04-20T01:31:10;2.63;;;1.05;;
49440;SDS011;35317;51.978;6.296;2023-04-20T01:36:12;1.58;;;1.00;;
49440;SDS011;35317;51.978;6.296;2023-04-20T01:41:13;2.20;;;1.33;;
49440;SDS011;35317;51.978;6.296;2023-04-20T01:46:14;3.13;;;1.40;;
49440;SDS011;35317;51.978;6.296;2023-04-20T01:51:17;3.17;;;1.38;;
49440;SDS011;35317;51.978;6.296;2023-04-20T01:56:18;1.80;;;1.10;;
49440;SDS011;35317;51.978;6.296;2023-04-20T02:01:19;2.70;;;1.10;;
49440;SDS011;35317;51.978;6.296;2023-04-20T02:06:20;2.33;;;1.33;;
49440;SDS011;35317;51.978;6.296;2023-04-20T02:11:21;2.38;;;1.40;;
49440;SDS011;35317;51.978;6.296;2023-04-20T02:16:21;2.38;;;1.25;;
49440;SDS011;35317;51.978;6.296;2023-04-20T02:21:23;2.85;;;1.50;;
49440;SDS011;35317;51.978;6.296;2023-04-20T02:26:23;4.10;;;1.40;;
49440;SDS011;35317;51.978;6.296;2023-04-20T02:31:24;2.22;;;1.48;;
49440;SDS011;35317;51.978;6.296;2023-04-20T02:36:25;2.67;;;1.35;;
49440;SDS011;35317;51.978;6.296;2023-04-20T02:41:26;3.10;;;1.52;;
49440;SDS011;35317;51.978;6.296;2023-04-20T02:46:26;2.33;;;1.40;;
49440;SDS011;35317;51.978;6.296;2023-04-20T02:51:27;2.05;;;1.40;;
49440;SDS011;35317;51.978;6.296;2023-04-20T02:56:28;4.72;;;1.33;;
49440;SDS011;35317;51.978;6.296;2023-04-20T03:01:29;2.70;;;1.65;;
49440;SDS011;35317;51.978;6.296;2023-04-20T03:06:30;3.97;;;1.42;;
49440;SDS011;35317;51.978;6.296;2023-04-20T03:11:31;2.53;;;1.52;;
49440;SDS011;35317;51.978;6.296;2023-04-20T03:16:32;3.42;;;1.77;;
49440;SDS011;35317;51.978;6.296;2023-04-20T03:21:33;3.63;;;1.65;;
49440;SDS011;35317;51.978;6.296;2023-04-20T03:26:33;2.53;;;1.42;;
49440;SDS011;35317;51.978;6.296;2023-04-20T03:31:35;2.22;;;1.40;;
49440;SDS011;35317;51.978;6.296;2023-04-20T03:36:36;2.42;;;1.60;;
49440;SDS011;35317;51.978;6.296;2023-04-20T03:41:37;4.80;;;1.73;;
49440;SDS011;35317;51.978;6.296;2023-04-20T03:46:37;3.58;;;1.55;;
49440;SDS011;35317;51.978;6.296;2023-04-20T03:51:38;2.92;;;1.67;;
49440;SDS011;35317;51.978;6.296;2023-04-20T03:56:39;2.72;;;1.45;;
49440;SDS011;35317;51.978;6.296;2023-04-20T04:01:40;2.75;;;1.70;;
49440;SDS011;35317;51.978;6.296;2023-04-20T04:06:43;2.75;;;1.42;;
49440;SDS011;35317;51.978;6.296;2023-04-20T04:11:43;2.03;;;1.52;;
49440;SDS011;35317;51.978;6.296;2023-04-20T04:16:44;4.90;;;1.55;;
49440;SDS011;35317;51.978;6.296;2023-04-20T04:21:45;4.30;;;1.67;;
49440;SDS011;35317;51.978;6.296;2023-04-20T04:26:46;3.20;;;1.60;;
49440;SDS011;35317;51.978;6.296;2023-04-20T04:31:47;3.92;;;2.20;;
49440;SDS011;35317;51.978;6.296;2023-04-20T04:36:48;3.22;;;1.90;;
49440;SDS011;35317;51.978;6.296;2023-04-20T04:41:49;4.53;;;2.17;;
49440;SDS011;35317;51.978;6.296;2023-04-20T04:46:50;3.95;;;2.20;;
49440;SDS011;35317;51.978;6.296;2023-04-20T04:51:51;5.72;;;2.70;;
49440;SDS011;35317;51.978;6.296;2023-04-20T04:56:52;4.55;;;2.00;;
49440;SDS011;35317;51.978;6.296;2023-04-20T05:01:52;4.97;;;1.92;;
49440;SDS011;35317;51.978;6.296;2023-04-20T05:06:53;3.28;;;2.17;;
49440;SDS011;35317;51.978;6.296;2023-04-20T05:11:54;3.72;;;2.05;;
49440;SDS011;35317;51.978;6.296;2023-04-20T05:16:59;4.25;;;1.95;;
49440;SDS011;35317;51.978;6.296;2023-04-20T05:22:01;2.80;;;1.80;;
49440;SDS011;35317;51.978;6.296;2023-04-20T05:27:01;4.10;;;2.45;;
49440;SDS011;35317;51.978;6.296;2023-04-20T05:32:03;3.42;;;2.13;;
49440;SDS011;35317;51.978;6.296;2023-04-20T05:37:04;2.85;;;2.05;;
49440;SDS011;35317;51.978;6.296;2023-04-20T05:42:05;2.45;;;1.60;;
49440;SDS011;35317;51.978;6.296;2023-04-20T05:47:06;3.40;;;1.90;;
49440;SDS011;35317;51.978;6.296;2023-04-20T05:52:07;4.38;;;1.98;;
49440;SDS011;35317;51.978;6.296;2023-04-20T05:57:08;5.85;;;1.70;;
49440;SDS011;35317;51.978;6.296;2023-04-20T06:02:09;2.00;;;1.50;;
49440;SDS011;35317;51.978;6.296;2023-04-20T06:07:10;2.90;;;1.60;;
49440;SDS011;35317;51.978;6.296;2023-04-20T06:17:37;3.70;;;1.50;;
49440;SDS011;35317;51.978;6.296;2023-04-20T06:22:42;2.25;;;1.33;;
49440;SDS011;35317;51.978;6.296;2023-04-20T06:27:44;2.33;;;1.45;;
49440;SDS011;35317;51.978;6.296;2023-04-20T06:32:46;3.20;;;1.88;;
49440;SDS011;35317;51.978;6.296;2023-04-20T06:37:47;3.10;;;1.70;;
49440;SDS011;35317;51.978;6.296;2023-04-20T06:42:48;3.83;;;1.92;;
49440;SDS011;35317;51.978;6.296;2023-04-20T06:47:49;2.75;;;1.70;;
49440;SDS011;35317;51.978;6.296;2023-04-20T06:53:02;2.70;;;1.85;;
49440;SDS011;35317;51.978;6.296;2023-04-20T06:58:06;3.22;;;1.83;;
49440;SDS011;35317;51.978;6.296;2023-04-20T07:03:07;5.40;;;2.28;;
49440;SDS011;35317;51.978;6.296;2023-04-20T07:08:07;3.08;;;1.58;;
49440;SDS011;35317;51.978;6.296;2023-04-20T07:13:08;4.53;;;1.98;;
49440;SDS011;35317;51.978;6.296;2023-04-20T07:18:09;5.05;;;2.15;;
49440;SDS011;35317;51.978;6.296;2023-04-20T07:23:10;2.30;;;1.80;;
49440;SDS011;35317;51.978;6.296;2023-04-20T07:28:11;2.85;;;1.75;;
49440;SDS011;35317;51.978;6.296;2023-04-20T07:33:12;2.63;;;1.92;;
49440;SDS011;35317;51.978;6.296;2023-04-20T07:38:12;2.85;;;1.88;;
49440;SDS011;35317;51.978;6.296;2023-04-20T07:43:14;3.88;;;1.98;;
49440;SDS011;35317;51.978;6.296;2023-04-20T07:48:15;3.30;;;1.80;;
49440;SDS011;35317;51.978;6.296;2023-04-20T07:53:16;3.72;;;2.25;;
49440;SDS011;35317;51.978;6.296;2023-04-20T07:58:16;2.17;;;1.52;;
49440;SDS011;35317;51.978;6.296;2023-04-20T08:03:17;3.00;;;2.00;;
49440;SDS011;35317;51.978;6.296;2023-04-20T08:08:18;3.38;;;2.00;;
49440;SDS011;35317;51.978;6.296;2023-04-20T08:13:19;3.20;;;1.90;;
49440;SDS011;35317;51.978;6.296;2023-04-20T08:18:20;3.40;;;1.88;;
49440;SDS011;35317;51.978;6.296;2023-04-20T08:23:21;3.47;;;1.83;;
49440;SDS011;35317;51.978;6.296;2023-04-20T08:28:27;4.72;;;2.10;;
49440;SDS011;35317;51.978;6.296;2023-04-20T08:33:46;3.45;;;2.05;;
49440;SDS011;35317;51.978;6.296;2023-04-20T08:39:07;3.15;;;1.98;;
49440;SDS011;35317;51.978;6.296;2023-04-20T08:44:29;6.68;;;2.20;;
49440;SDS011;35317;51.978;6.296;2023-04-20T08:49:50;3.08;;;1.88;;
49440;SDS011;35317;51.978;6.296;2023-04-20T08:55:14;5.38;;;2.20;;
49440;SDS011;35317;51.978;6.296;2023-04-20T09:00:44;1.98;;;1.63;;
49440;SDS011;35317;51.978;6.296;2023-04-20T09:06:05;2.58;;;1.52;;
49440;SDS011;35317;51.978;6.296;2023-04-20T09:11:35;2.60;;;1.50;;
49440;SDS011;35317;51.978;6.296;2023-04-20T09:16:56;3.25;;;2.17;;
49440;SDS011;35317;51.978;6.296;2023-04-20T09:27:54;4.38;;;2.15;;
49440;SDS011;35317;51.978;6.296;2023-04-20T09:33:19;2.75;;;1.80;;
49440;SDS011;35317;51.978;6.296;2023-04-20T09:38:46;3.13;;;1.90;;
49440;SDS011;35317;51.978;6.296;2023-04-20T09:44:06;3.95;;;2.28;;
49440;SDS011;35317;51.978;6.296;2023-04-20T09:49:26;4.13;;;1.98;;
49440;SDS011;35317;51.978;6.296;2023-04-20T09:54:46;2.65;;;1.88;;
49440;SDS011;35317;51.978;6.296;2023-04-20T10:00:06;3.25;;;1.75;;
49440;SDS011;35317;51.978;6.296;2023-04-20T10:05:34;5.22;;;2.00;;
49440;SDS011;35317;51.978;6.296;2023-04-20T10:10:56;3.33;;;2.25;;
49440;SDS011;35317;51.978;6.296;2023-04-20T10:16:16;2.38;;;1.80;;
49440;SDS011;35317;51.978;6.296;2023-04-20T10:21:43;2.67;;;2.10;;
49440;SDS011;35317;51.978;6.296;2023-04-20T10:27:20;2.78;;;2.05;;
49440;SDS011;35317;51.978;6.296;2023-04-20T10:32:41;4.63;;;2.08;;
49440;SDS011;35317;51.978;6.296;2023-04-20T10:38:00;3.58;;;2.03;;
49440;SDS011;35317;51.978;6.296;2023-04-20T10:43:20;2.75;;;2.00;;
49440;SDS011;35317;51.978;6.296;2023-04-20T10:48:21;3.20;;;2.08;;
49440;SDS011;35317;51.978;6.296;2023-04-20T10:53:22;2.92;;;2.00;;
49440;SDS011;35317;51.978;6.296;2023-04-20T10:58:23;4.28;;;2.33;;
49440;SDS011;35317;51.978;6.296;2023-04-20T11:03:26;2.92;;;2.03;;
49440;SDS011;35317;51.978;6.296;2023-04-20T11:08:35;3.25;;;2.30;;
49440;SDS011;35317;51.978;6.296;2023-04-20T11:13:40;3.45;;;2.30;;
49440;SDS011;35317;51.978;6.296;2023-04-20T11:18:51;3.95;;;2.50;;
49440;SDS011;35317;51.978;6.296;2023-04-20T11:23:54;3.90;;;2.20;;
49440;SDS011;35317;51.978;6.296;2023-04-20T11:28:56;3.47;;;2.42;;
49440;SDS011;35317;51.978;6.296;2023-04-20T11:33:57;4.53;;;2.10;;
49440;SDS011;35317;51.978;6.296;2023-04-20T11:39:07;3.05;;;2.42;;
49440;SDS011;35317;51.978;6.296;2023-04-20T11:44:09;3.33;;;2.03;;
49440;SDS011;35317;51.978;6.296;2023-04-20T11:49:10;4.28;;;2.70;;
49440;SDS011;35317;51.978;6.296;2023-04-20T11:54:11;4.82;;;2.53;;
49440;SDS011;35317;51.978;6.296;2023-04-20T11:59:13;3.88;;;2.53;;
49440;SDS011;35317;51.978;6.296;2023-04-20T12:04:15;3.75;;;2.45;;
49440;SDS011;35317;51.978;6.296;2023-04-20T12:09:16;4.38;;;2.53;;
49440;SDS011;35317;51.978;6.296;2023-04-20T12:14:17;3.95;;;2.38;;
49440;SDS011;35317;51.978;6.296;2023-04-20T12:19:18;3.63;;;2.35;;
49440;SDS011;35317;51.978;6.296;2023-04-20T12:24:19;2.78;;;2.13;;
49440;SDS011;35317;51.978;6.296;2023-04-20T12:29:20;4.20;;;2.90;;
49440;SDS011;35317;51.978;6.296;2023-04-20T12:34:20;3.28;;;2.30;;
49440;SDS011;35317;51.978;6.296;2023-04-20T12:39:21;4.13;;;2.88;;
49440;SDS011;35317;51.978;6.296;2023-04-20T12:44:22;8.23;;;3.10;;
49440;SDS011;35317;51.978;6.296;2023-04-20T12:49:23;6.10;;;3.28;;
49440;SDS011;35317;51.978;6.296;2023-04-20T12:54:24;4.07;;;2.80;;
49440;SDS011;35317;51.978;6.296;2023-04-20T12:59:25;5.13;;;3.45;;
49440;SDS011;35317;51.978;6.296;2023-04-20T13:04:26;6.30;;;3.22;;
49440;SDS011;35317;51.978;6.296;2023-04-20T13:09:26;3.40;;;2.50;;
49440;SDS011;35317;51.978;6.296;2023-04-20T13:14:27;5.03;;;2.83;;
49440;SDS011;35317;51.978;6.296;2023-04-20T13:19:29;4.50;;;2.67;;
49440;SDS011;35317;51.978;6.296;2023-04-20T13:24:30;4.07;;;2.90;;
49440;SDS011;35317;51.978;6.296;2023-04-20T13:29:31;3.63;;;2.90;;
49440;SDS011;35317;51.978;6.296;2023-04-20T13:34:32;3.47;;;2.70;;
49440;SDS011;35317;51.978;6.296;2023-04-20T13:39:33;3.47;;;2.90;;
49440;SDS011;35317;51.978;6.296;2023-04-20T13:44:34;4.32;;;2.75;;
49440;SDS011;35317;51.978;6.296;2023-04-20T13:49:35;4.60;;;3.08;;
49440;SDS011;35317;51.978;6.296;2023-04-20T13:54:38;4.07;;;2.93;;
49440;SDS011;35317;51.978;6.296;2023-04-20T13:59:39;4.47;;;3.08;;
49440;SDS011;35317;51.978;6.296;2023-04-20T14:04:43;4.65;;;2.78;;
49440;SDS011;35317;51.978;6.296;2023-04-20T14:09:44;5.30;;;3.60;;
49440;SDS011;35317;51.978;6.296;2023-04-20T14:14:45;4.10;;;2.83;;
49440;SDS011;35317;51.978;6.296;2023-04-20T14:19:46;4.25;;;2.92;;
49440;SDS011;35317;51.978;6.296;2023-04-20T14:24:48;4.40;;;2.70;;
49440;SDS011;35317;51.978;6.296;2023-04-20T14:29:49;3.95;;;3.22;;
49440;SDS011;35317;51.978;6.296;2023-04-20T14:34:50;3.97;;;3.00;;
49440;SDS011;35317;51.978;6.296;2023-04-20T14:39:51;4.50;;;3.13;;
49440;SDS011;35317;51.978;6.296;2023-04-20T14:44:52;4.22;;;3.08;;
49440;SDS011;35317;51.978;6.296;2023-04-20T14:49:53;4.50;;;3.40;;
49440;SDS011;35317;51.978;6.296;2023-04-20T14:54:55;3.30;;;2.90;;
49440;SDS011;35317;51.978;6.296;2023-04-20T14:59:55;4.68;;;3.22;;
49440;SDS011;35317;51.978;6.296;2023-04-20T15:04:56;3.45;;;2.65;;
49440;SDS011;35317;51.978;6.296;2023-04-20T15:09:57;6.07;;;3.08;;
49440;SDS011;35317;51.978;6.296;2023-04-20T15:14:58;3.50;;;2.67;;
49440;SDS011;35317;51.978;6.296;2023-04-20T15:19:59;3.50;;;3.03;;
49440;SDS011;35317;51.978;6.296;2023-04-20T15:24:59;3.50;;;2.75;;
49440;SDS011;35317;51.978;6.296;2023-04-20T15:30:01;3.97;;;3.05;;
49440;SDS011;35317;51.978;6.296;2023-04-20T15:35:03;3.60;;;2.65;;
49440;SDS011;35317;51.978;6.296;2023-04-20T15:40:04;4.00;;;2.80;;
49440;SDS011;35317;51.978;6.296;2023-04-20T15:45:06;3.70;;;2.90;;
49440;SDS011;35317;51.978;6.296;2023-04-20T15:50:08;4.65;;;3.13;;
49440;SDS011;35317;51.978;6.296;2023-04-20T15:55:09;5.43;;;3.47;;
49440;SDS011;35317;51.978;6.296;2023-04-20T16:00:10;4.63;;;3.35;;
49440;SDS011;35317;51.978;6.296;2023-04-20T16:05:15;4.20;;;3.28;;
49440;SDS011;35317;51.978;6.296;2023-04-20T16:10:16;4.88;;;3.15;;
49440;SDS011;35317;51.978;6.296;2023-04-20T16:15:17;3.63;;;2.90;;
49440;SDS011;35317;51.978;6.296;2023-04-20T16:20:19;4.95;;;3.25;;
49440;SDS011;35317;51.978;6.296;2023-04-20T16:25:20;3.38;;;2.90;;
49440;SDS011;35317;51.978;6.296;2023-04-20T16:30:25;4.00;;;2.92;;
49440;SDS011;35317;51.978;6.296;2023-04-20T16:35:26;4.60;;;3.03;;
49440;SDS011;35317;51.978;6.296;2023-04-20T16:40:27;5.43;;;3.00;;
49440;SDS011;35317;51.978;6.296;2023-04-20T16:45:28;3.92;;;2.90;;
49440;SDS011;35317;51.978;6.296;2023-04-20T16:50:29;4.63;;;3.30;;
49440;SDS011;35317;51.978;6.296;2023-04-20T16:55:31;4.82;;;3.30;;
49440;SDS011;35317;51.978;6.296;2023-04-20T17:00:32;4.97;;;3.38;;
49440;SDS011;35317;51.978;6.296;2023-04-20T17:05:34;4.55;;;3.60;;
49440;SDS011;35317;51.978;6.296;2023-04-20T17:10:38;4.15;;;3.58;;
49440;SDS011;35317;51.978;6.296;2023-04-20T17:15:39;4.15;;;3.00;;
49440;SDS011;35317;51.978;6.296;2023-04-20T17:20:41;4.00;;;2.85;;
49440;SDS011;35317;51.978;6.296;2023-04-20T17:25:44;4.07;;;3.05;;
49440;SDS011;35317;51.978;6.296;2023-04-20T17:30:46;4.55;;;3.00;;
49440;SDS011;35317;51.978;6.296;2023-04-20T17:35:47;3.95;;;2.97;;
49440;SDS011;35317;51.978;6.296;2023-04-20T17:40:47;3.70;;;2.88;;
49440;SDS011;35317;51.978;6.296;2023-04-20T17:45:48;3.75;;;3.10;;
49440;SDS011;35317;51.978;6.296;2023-04-20T17:50:49;4.13;;;3.40;;
49440;SDS011;35317;51.978;6.296;2023-04-20T17:55:50;3.58;;;2.92;;
49440;SDS011;35317;51.978;6.296;2023-04-20T18:00:51;4.18;;;3.08;;
49440;SDS011;35317;51.978;6.296;2023-04-20T18:05:52;3.92;;;2.90;;
49440;SDS011;35317;51.978;6.296;2023-04-20T18:10:53;3.10;;;2.45;;
49440;SDS011;35317;51.978;6.296;2023-04-20T18:15:53;3.85;;;2.88;;
49440;SDS011;35317;51.978;6.296;2023-04-20T18:20:54;4.05;;;3.17;;
49440;SDS011;35317;51.978;6.296;2023-04-20T18:25:55;4.47;;;3.25;;
49440;SDS011;35317;51.978;6.296;2023-04-20T18:30:56;3.97;;;3.28;;
49440;SDS011;35317;51.978;6.296;2023-04-20T18:35:57;4.05;;;3.00;;
49440;SDS011;35317;51.978;6.296;2023-04-20T18:40:58;4.93;;;3.22;;
49440;SDS011;35317;51.978;6.296;2023-04-20T18:45:58;4.28;;;3.35;;
49440;SDS011;35317;51.978;6.296;2023-04-20T18:50:59;4.75;;;2.90;;
49440;SDS011;35317;51.978;6.296;2023-04-20T18:56:00;4.97;;;3.13;;
49440;SDS011;35317;51.978;6.296;2023-04-20T19:01:01;4.60;;;3.45;;
49440;SDS011;35317;51.978;6.296;2023-04-20T19:06:02;5.28;;;3.97;;
49440;SDS011;35317;51.978;6.296;2023-04-20T19:11:03;6.57;;;3.95;;
49440;SDS011;35317;51.978;6.296;2023-04-20T19:16:04;6.45;;;4.13;;
49440;SDS011;35317;51.978;6.296;2023-04-20T19:21:05;6.03;;;4.18;;
49440;SDS011;35317;51.978;6.296;2023-04-20T19:26:06;6.53;;;4.20;;
49440;SDS011;35317;51.978;6.296;2023-04-20T19:31:06;6.55;;;4.47;;
49440;SDS011;35317;51.978;6.296;2023-04-20T19:36:10;6.88;;;4.60;;
49440;SDS011;35317;51.978;6.296;2023-04-20T19:41:11;5.60;;;4.07;;
49440;SDS011;35317;51.978;6.296;2023-04-20T19:46:12;6.75;;;4.25;;
49440;SDS011;35317;51.978;6.296;2023-04-20T19:51:14;5.35;;;4.38;;
49440;SDS011;35317;51.978;6.296;2023-04-20T19:56:14;5.57;;;4.28;;
49440;SDS011;35317;51.978;6.296;2023-04-20T20:01:15;6.97;;;4.55;;
49440;SDS011;35317;51.978;6.296;2023-04-20T20:06:16;5.72;;;4.68;;
49440;SDS011;35317;51.978;6.296;2023-04-20T20:11:17;8.48;;;4.65;;
49440;SDS011;35317;51.978;6.296;2023-04-20T20:16:18;7.82;;;5.30;;
49440;SDS011;35317;51.978;6.296;2023-04-20T20:21:19;8.07;;;5.22;;
49440;SDS011;35317;51.978;6.296;2023-04-20T20:26:20;6.80;;;4.80;;
49440;SDS011;35317;51.978;6.296;2023-04-20T20:31:21;7.60;;;5.03;;
49440;SDS011;35317;51.978;6.296;2023-04-20T20:36:21;9.07;;;5.07;;
49440;SDS011;35317;51.978;6.296;2023-04-20T20:41:22;7.47;;;4.75;;
49440;SDS011;35317;51.978;6.296;2023-04-20T20:46:23;8.10;;;5.03;;
49440;SDS011;35317;51.978;6.296;2023-04-20T20:51:24;7.45;;;4.70;;
49440;SDS011;35317;51.978;6.296;2023-04-20T20:56:25;8.80;;;4.72;;
49440;SDS011;35317;51.978;6.296;2023-04-20T21:01:26;7.68;;;4.72;;
49440;SDS011;35317;51.978;6.296;2023-04-20T21:06:27;9.07;;;5.22;;
49440;SDS011;35317;51.978;6.296;2023-04-20T21:11:27;7.90;;;4.97;;
49440;SDS011;35317;51.978;6.296;2023-04-20T21:16:28;9.35;;;5.03;;
49440;SDS011;35317;51.978;6.296;2023-04-20T21:21:29;7.40;;;4.72;;
49440;SDS011;35317;51.978;6.296;2023-04-20T21:26:31;9.25;;;5.18;;
49440;SDS011;35317;51.978;6.296;2023-04-20T21:31:35;9.32;;;5.43;;
49440;SDS011;35317;51.978;6.296;2023-04-20T21:36:39;8.13;;;4.95;;
49440;SDS011;35317;51.978;6.296;2023-04-20T21:41:40;9.82;;;5.65;;
49440;SDS011;35317;51.978;6.296;2023-04-20T21:46:41;9.35;;;5.63;;
49440;SDS011;35317;51.978;6.296;2023-04-20T21:51:41;9.10;;;5.65;;
49440;SDS011;35317;51.978;6.296;2023-04-20T21:56:42;8.43;;;5.15;;
49440;SDS011;35317;51.978;6.296;2023-04-20T22:01:43;10.00;;;5.32;;
49440;SDS011;35317;51.978;6.296;2023-04-20T22:06:44;7.38;;;4.95;;
49440;SDS011;35317;51.978;6.296;2023-04-20T22:11:46;8.38;;;5.35;;
49440;SDS011;35317;51.978;6.296;2023-04-20T22:16:47;9.75;;;5.45;;
49440;SDS011;35317;51.978;6.296;2023-04-20T22:21:48;9.75;;;5.47;;
49440;SDS011;35317;51.978;6.296;2023-04-20T22:26:48;11.77;;;5.93;;
49440;SDS011;35317;51.978;6.296;2023-04-20T22:31:49;10.75;;;5.93;;
49440;SDS011;35317;51.978;6.296;2023-04-20T22:36:50;9.23;;;5.10;;
49440;SDS011;35317;51.978;6.296;2023-04-20T22:41:51;11.32;;;5.65;;
49440;SDS011;35317;51.978;6.296;2023-04-20T22:46:51;11.27;;;6.43;;
49440;SDS011;35317;51.978;6.296;2023-04-20T22:51:52;11.13;;;6.22;;
49440;SDS011;35317;51.978;6.296;2023-04-20T22:56:56;10.43;;;6.10;;
49440;SDS011;35317;51.978;6.296;2023-04-20T23:01:57;13.48;;;6.63;;
49440;SDS011;35317;51.978;6.296;2023-04-20T23:06:58;13.98;;;7.47;;
49440;SDS011;35317;51.978;6.296;2023-04-20T23:12:00;14.65;;;7.40;;
49440;SDS011;35317;51.978;6.296;2023-04-20T23:17:02;14.05;;;7.75;;
49440;SDS011;35317;51.978;6.296;2023-04-20T23:22:04;14.13;;;7.80;;
49440;SDS011;35317;51.978;6.296;2023-04-20T23:27:07;15.43;;;8.13;;
49440;SDS011;35317;51.978;6.296;2023-04-20T23:32:08;17.40;;;8.18;;
49440;SDS011;35317;51.978;6.296;2023-04-20T23:37:09;17.63;;;8.20;;
49440;SDS011;35317;51.978;6.296;2023-04-20T23:42:10;19.23;;;8.32;;
49440;SDS011;35317;51.978;6.296;2023-04-20T23:47:11;16.75;;;8.68;;
49440;SDS011;35317;51.978;6.296;2023-04-20T23:52:12;20.90;;;9.52;;
49440;SDS011;35317;51.978;6.296;2023-04-20T23:57:13;20.45;;;9.43;;
